createdAt,value
2023-01-25T00:01:43.641Z,18.87
2023-01-25T00:04:12.070Z,19.17
2023-01-25T00:06:39.922Z,18.40
2023-01-25T00:09:10.778Z,19.50
2023-01-25T00:11:38.901Z,17.27
2023-01-25T00:14:07.245Z,17.10
2023-01-25T00:16:36.608Z,16.87
2023-01-25T00:19:05.044Z,17.37
2023-01-25T00:21:34.117Z,18.13
2023-01-25T00:24:02.800Z,14.97
2023-01-25T00:26:33.252Z,17.37
2023-01-25T00:29:02.796Z,17.97
2023-01-25T00:31:48.253Z,18.40
2023-01-25T00:34:43.993Z,17.20
2023-01-25T00:37:21.531Z,17.00
2023-01-25T00:39:49.668Z,17.40
2023-01-25T00:42:20.155Z,16.40
2023-01-25T00:44:49.336Z,16.53
2023-01-25T00:47:18.007Z,16.63
2023-01-25T00:49:47.189Z,18.30
2023-01-25T00:52:15.116Z,15.47
2023-01-25T00:54:42.973Z,17.67
2023-01-25T00:57:11.184Z,17.50
2023-01-25T00:59:44.279Z,18.57
2023-01-25T01:02:12.824Z,17.57
2023-01-25T01:04:40.808Z,18.13
2023-01-25T01:07:13.360Z,17.63
2023-01-25T01:09:41.602Z,18.00
2023-01-25T01:12:12.330Z,18.33
2023-01-25T01:14:41.539Z,19.13
2023-01-25T01:17:09.365Z,19.67
2023-01-25T01:19:37.198Z,18.40
2023-01-25T01:22:05.214Z,18.50
2023-01-25T01:24:33.094Z,18.43
2023-01-25T01:27:01.050Z,18.13
2023-01-25T01:29:29.296Z,18.27
2023-01-25T01:31:58.990Z,19.23
2023-01-25T01:34:28.248Z,18.87
2023-01-25T01:36:56.598Z,16.73
2023-01-25T01:39:25.107Z,16.23
2023-01-25T01:41:53.101Z,18.93
2023-01-25T01:44:44.618Z,19.10
2023-01-25T01:47:22.165Z,19.37
2023-01-25T01:50:01.426Z,19.93
2023-01-25T01:52:37.714Z,19.90
2023-01-25T01:55:12.999Z,18.80
2023-01-25T01:57:48.699Z,19.60
2023-01-25T02:00:21.340Z,18.60
2023-01-25T02:02:51.992Z,19.17
2023-01-25T02:05:31.215Z,19.03
2023-01-25T02:08:03.642Z,19.20
2023-01-25T02:10:34.301Z,19.37
2023-01-25T02:13:02.127Z,17.87
2023-01-25T02:15:41.861Z,19.47
2023-01-25T02:18:12.527Z,19.73
2023-01-25T02:20:44.068Z,18.90
2023-01-25T02:23:23.787Z,18.23
2023-01-25T02:25:53.734Z,17.47
2023-01-25T02:28:26.755Z,17.77
2023-01-25T02:30:54.843Z,17.67
2023-01-25T02:33:26.941Z,16.73
2023-01-25T02:36:15.296Z,18.10
2023-01-25T02:38:52.907Z,18.00
2023-01-25T02:41:30.135Z,18.38
2023-01-25T02:43:59.578Z,19.50
2023-01-25T02:46:31.726Z,19.03
2023-01-25T02:49:01.580Z,18.53
2023-01-25T02:51:34.260Z,19.13
2023-01-25T02:54:04.808Z,18.43
2023-01-25T02:56:35.062Z,19.80
2023-01-25T02:59:05.663Z,19.90
2023-01-25T03:01:38.023Z,20.10
2023-01-25T03:04:07.217Z,21.33
2023-01-25T03:06:35.958Z,20.57
2023-01-25T03:09:06.741Z,17.80
2023-01-25T03:11:36.148Z,19.70
2023-01-25T03:14:04.150Z,19.30
2023-01-25T03:16:33.805Z,18.33
2023-01-25T03:19:03.169Z,19.70
2023-01-25T03:21:31.467Z,21.40
2023-01-25T03:24:02.193Z,20.93
2023-01-25T03:26:58.546Z,19.63
2023-01-25T03:29:34.911Z,20.80
2023-01-25T03:32:06.667Z,21.20
2023-01-25T03:34:34.856Z,20.47
2023-01-25T03:37:03.074Z,21.30
2023-01-25T03:39:36.291Z,21.43
2023-01-25T03:42:07.096Z,20.87
2023-01-25T03:44:35.107Z,22.63
2023-01-25T03:47:03.206Z,23.30
2023-01-25T03:49:31.462Z,22.17
2023-01-25T03:51:59.442Z,22.03
2023-01-25T03:54:35.419Z,22.13
2023-01-25T03:57:05.061Z,19.77
2023-01-25T03:59:40.993Z,21.50
2023-01-25T04:02:08.953Z,21.23
2023-01-25T04:04:36.801Z,21.40
2023-01-25T04:07:05.214Z,21.47
2023-01-25T04:09:35.360Z,19.60
2023-01-25T04:12:04.891Z,20.90
2023-01-25T04:14:44.009Z,23.57
2023-01-25T04:17:17.925Z,22.73
2023-01-25T04:20:00.360Z,24.20
2023-01-25T04:22:35.584Z,24.23
2023-01-25T04:25:08.206Z,23.77
2023-01-25T04:27:40.618Z,24.70
2023-01-25T04:30:13.312Z,23.17
2023-01-25T04:32:42.581Z,22.83
2023-01-25T04:35:21.131Z,22.40
2023-01-25T04:37:55.029Z,24.50
2023-01-25T04:40:25.654Z,23.65
2023-01-25T04:42:55.182Z,23.40
2023-01-25T04:45:24.218Z,24.77
2023-01-25T04:47:58.749Z,25.10
2023-01-25T04:52:56.111Z,22.07
2023-01-25T04:55:25.179Z,21.73
2023-01-25T04:57:56.626Z,20.87
2023-01-25T05:00:24.517Z,21.23
2023-01-25T05:02:52.427Z,20.50
2023-01-25T05:05:20.523Z,22.43
2023-01-25T05:07:49.447Z,23.00
2023-01-25T05:10:17.497Z,22.53
2023-01-25T05:13:06.607Z,24.07
2023-01-25T05:15:34.982Z,24.37
2023-01-25T05:18:04.693Z,20.77
2023-01-25T05:20:34.024Z,22.27
2023-01-25T05:23:02.613Z,22.97
2023-01-25T05:25:50.362Z,23.50
2023-01-25T05:28:28.025Z,23.63
2023-01-25T05:31:22.365Z,22.07
2023-01-25T05:33:50.224Z,22.83
2023-01-25T05:36:19.460Z,21.90
2023-01-25T05:38:48.300Z,21.37
2023-01-25T05:41:16.227Z,23.23
2023-01-25T05:43:49.805Z,22.47
2023-01-25T05:46:18.385Z,21.33
2023-01-25T05:48:48.235Z,27.07
2023-01-25T05:51:16.212Z,21.93
2023-01-25T05:53:44.258Z,23.07
2023-01-25T05:56:12.303Z,21.23
2023-01-25T05:58:41.605Z,23.17
2023-01-25T06:01:11.651Z,22.57
2023-01-25T06:03:48.701Z,23.37
2023-01-25T06:06:17.072Z,23.33
2023-01-25T06:08:45.832Z,20.80
2023-01-25T06:11:16.998Z,21.13
2023-01-25T06:13:48.046Z,22.37
2023-01-25T06:16:18.925Z,22.40
2023-01-25T06:19:06.410Z,23.13
2023-01-25T06:22:09.139Z,22.53
2023-01-25T06:24:36.915Z,22.67
2023-01-25T06:27:04.859Z,22.73
2023-01-25T06:29:32.849Z,21.33
2023-01-25T06:32:02.047Z,23.53
2023-01-25T06:34:30.007Z,21.60
2023-01-25T06:36:57.996Z,21.80
2023-01-25T06:39:25.873Z,21.60
2023-01-25T06:41:54.969Z,21.63
2023-01-25T06:44:22.905Z,22.60
2023-01-25T06:46:50.931Z,22.97
2023-01-25T06:49:20.220Z,21.50
2023-01-25T06:51:47.950Z,23.50
2023-01-25T06:54:15.720Z,23.80
2023-01-25T06:56:43.874Z,24.23
2023-01-25T06:59:11.886Z,25.17
2023-01-25T07:01:39.890Z,23.73
2023-01-25T07:04:13.984Z,23.57
2023-01-25T07:06:43.604Z,23.87
2023-01-25T07:09:14.702Z,23.23
2023-01-25T07:11:42.668Z,24.63
2023-01-25T07:14:10.449Z,24.93
2023-01-25T07:16:38.630Z,23.93
2023-01-25T07:19:11.399Z,25.70
2023-01-25T07:21:39.361Z,25.63
2023-01-25T07:24:15.481Z,24.20
2023-01-25T07:26:43.948Z,23.60
2023-01-25T07:29:15.118Z,23.97
2023-01-25T07:31:43.124Z,24.33
2023-01-25T07:34:13.227Z,23.90
2023-01-25T07:36:43.817Z,24.90
2023-01-25T07:39:13.719Z,23.13
2023-01-25T07:41:41.538Z,24.83
2023-01-25T07:44:14.283Z,23.70
2023-01-25T07:46:47.933Z,23.40
2023-01-25T07:49:16.103Z,22.83
2023-01-25T07:51:44.135Z,22.83
2023-01-25T07:54:13.434Z,24.30
2023-01-25T07:56:41.350Z,23.63
2023-01-25T07:59:10.867Z,23.50
2023-01-25T08:01:39.872Z,23.33
2023-01-25T08:04:08.776Z,23.40
2023-01-25T08:06:39.202Z,23.63
2023-01-25T08:09:12.597Z,24.67
2023-01-25T08:11:43.082Z,25.03
2023-01-25T08:14:11.345Z,24.93
2023-01-25T08:16:39.495Z,24.90
2023-01-25T08:19:10.203Z,25.50
2023-01-25T08:21:38.438Z,24.77
2023-01-25T08:24:09.384Z,26.03
2023-01-25T08:26:38.180Z,26.00
2023-01-25T08:29:07.418Z,24.17
2023-01-25T08:31:36.843Z,25.03
2023-01-25T08:34:06.735Z,25.37
2023-01-25T08:36:34.903Z,30.30
2023-01-25T08:39:06.409Z,25.77
2023-01-25T08:41:36.089Z,26.57
2023-01-25T08:44:05.309Z,25.50
2023-01-25T08:46:34.725Z,25.13
2023-01-25T08:49:04.078Z,24.43
2023-01-25T08:51:33.437Z,24.93
2023-01-25T08:54:06.065Z,24.60
2023-01-25T08:56:37.360Z,24.70
2023-01-25T08:59:06.619Z,24.60
2023-01-25T09:01:36.014Z,26.40
2023-01-25T09:04:04.056Z,25.73
2023-01-25T09:06:33.450Z,23.87
2023-01-25T09:09:01.339Z,23.97
2023-01-25T09:11:29.175Z,24.17
2023-01-25T09:13:57.030Z,24.47
2023-01-25T09:16:30.130Z,22.53
2023-01-25T09:19:03.136Z,23.00
2023-01-25T09:21:34.718Z,24.10
2023-01-25T09:24:06.513Z,24.77
2023-01-25T09:26:38.626Z,24.93
2023-01-25T09:29:08.246Z,23.90
2023-01-25T09:31:45.095Z,22.23
2023-01-25T09:34:16.599Z,22.73
2023-01-25T09:36:44.602Z,24.10
2023-01-25T09:39:13.183Z,23.90
2023-01-25T09:42:35.471Z,21.43
2023-01-25T09:45:26.390Z,22.83
2023-01-25T09:48:03.782Z,22.93
2023-01-25T09:50:41.665Z,22.63
2023-01-25T09:53:28.433Z,22.30
2023-01-25T09:56:01.089Z,22.50
2023-01-25T09:58:36.377Z,21.50
2023-01-25T10:01:37.488Z,22.90
2023-01-25T10:04:16.691Z,23.83
2023-01-25T10:07:00.245Z,24.20
2023-01-25T10:09:40.933Z,25.80
2023-01-25T10:12:19.495Z,25.40
2023-01-25T10:14:48.770Z,24.07
2023-01-25T10:17:31.195Z,23.80
2023-01-25T10:20:20.142Z,24.17
2023-01-25T10:22:56.358Z,24.47
2023-01-25T10:25:37.227Z,22.57
2023-01-25T10:28:28.497Z,24.77
2023-01-25T10:31:03.628Z,24.33
2023-01-25T10:33:40.359Z,24.17
2023-01-25T10:36:15.369Z,24.20
2023-01-25T10:38:49.175Z,25.27
2023-01-25T10:41:26.765Z,25.17
2023-01-25T10:44:13.838Z,21.03
2023-01-25T10:46:47.436Z,23.40
2023-01-25T10:49:25.745Z,24.00
2023-01-25T10:51:53.708Z,24.20
2023-01-25T10:54:24.013Z,24.77
2023-01-25T10:56:53.055Z,26.70
2023-01-25T10:59:26.392Z,23.97
2023-01-25T11:01:54.589Z,25.50
2023-01-25T11:04:33.503Z,26.27
2023-01-25T11:07:05.760Z,24.13
2023-01-25T11:09:39.225Z,25.23
2023-01-25T11:12:19.144Z,23.97
2023-01-25T11:14:51.500Z,24.93
2023-01-25T11:17:32.221Z,25.73
2023-01-25T11:20:17.190Z,24.97
2023-01-25T11:22:55.958Z,24.87
2023-01-25T11:25:32.430Z,24.80
2023-01-25T11:28:19.212Z,28.03
2023-01-25T11:30:48.592Z,25.47
2023-01-25T11:33:20.669Z,25.50
2023-01-25T11:36:14.095Z,34.57
2023-01-25T11:39:01.487Z,32.37
2023-01-25T11:41:43.601Z,29.90
2023-01-25T11:45:06.553Z,28.07
2023-01-25T11:47:58.565Z,29.03
2023-01-25T11:50:36.635Z,30.50
2023-01-25T11:53:33.609Z,28.63
2023-01-25T11:56:15.140Z,28.33
2023-01-25T11:59:05.573Z,30.17
2023-01-25T12:01:48.176Z,28.87
2023-01-25T12:04:44.597Z,30.40
2023-01-25T12:07:27.228Z,32.22
2023-01-25T12:10:19.421Z,29.00
2023-01-25T12:12:59.139Z,30.47
2023-01-25T12:16:09.364Z,31.50
2023-01-25T12:19:07.707Z,29.80
2023-01-25T12:22:02.557Z,28.10
2023-01-25T12:24:51.786Z,30.73
2023-01-25T12:27:38.937Z,30.67
2023-01-25T12:30:22.199Z,32.13
2023-01-25T12:33:08.817Z,32.40
2023-01-25T12:35:49.373Z,31.53
2023-01-25T12:38:28.256Z,29.73
2023-01-25T12:41:03.746Z,30.53
2023-01-25T12:43:42.127Z,30.77
2023-01-25T12:46:20.654Z,33.57
2023-01-25T12:48:57.393Z,33.20
2023-01-25T12:51:35.581Z,29.90
2023-01-25T12:54:17.707Z,33.63
2023-01-25T12:56:58.847Z,36.43
2023-01-25T12:59:43.321Z,42.27
2023-01-25T13:02:34.833Z,42.30
2023-01-25T13:05:25.718Z,42.03
2023-01-25T13:08:05.581Z,35.57
2023-01-25T13:10:41.105Z,36.63
2023-01-25T13:13:23.435Z,37.97
2023-01-25T13:15:53.399Z,37.20
2023-01-25T13:18:40.859Z,41.90
2023-01-25T13:21:45.244Z,40.57
2023-01-25T13:24:18.649Z,36.63
2023-01-25T13:27:02.295Z,37.83
2023-01-25T13:29:56.089Z,36.80
2023-01-25T13:32:56.676Z,39.00
2023-01-25T13:35:33.046Z,36.13
2023-01-25T13:38:24.505Z,36.17
2023-01-25T13:41:12.263Z,38.43
2023-01-25T13:43:44.162Z,38.80
2023-01-25T13:46:18.772Z,38.93
2023-01-25T13:49:00.783Z,40.53
2023-01-25T13:51:35.924Z,38.53
2023-01-25T13:54:05.447Z,39.05
2023-01-25T13:56:35.573Z,39.73
2023-01-25T13:59:03.692Z,41.80
2023-01-25T14:01:35.156Z,45.23
2023-01-25T14:04:05.418Z,42.13
2023-01-25T14:06:39.894Z,46.97
2023-01-25T14:09:17.028Z,46.10
2023-01-25T14:11:56.521Z,48.43
2023-01-25T14:14:27.475Z,40.77
2023-01-25T14:17:13.227Z,41.53
2023-01-25T14:19:44.539Z,36.63
2023-01-25T14:22:20.942Z,39.07
2023-01-25T14:25:12.420Z,41.43
2023-01-25T14:27:47.537Z,45.57
2023-01-25T14:30:20.489Z,47.80
2023-01-25T14:32:50.605Z,43.17
2023-01-25T14:35:43.511Z,41.63
2023-01-25T14:38:28.395Z,39.07
2023-01-25T14:41:06.499Z,42.07
2023-01-25T14:43:37.432Z,42.73
2023-01-25T14:46:20.984Z,42.17
2023-01-25T14:48:49.796Z,39.50
2023-01-25T14:51:27.527Z,40.47
2023-01-25T14:54:03.508Z,41.33
2023-01-25T14:59:33.764Z,38.50
2023-01-25T15:02:16.718Z,39.57
2023-01-25T15:04:59.230Z,38.93
2023-01-25T15:07:42.339Z,38.40
2023-01-25T15:10:20.992Z,40.33
2023-01-25T15:13:12.764Z,38.10
2023-01-25T15:15:52.958Z,38.63
2023-01-25T15:18:48.240Z,39.07
2023-01-25T15:21:18.665Z,42.80
2023-01-25T15:23:49.681Z,42.40
2023-01-25T15:26:21.655Z,43.80
2023-01-25T15:28:53.550Z,42.53
2023-01-25T15:31:25.689Z,42.80
2023-01-25T15:33:54.999Z,43.40
2023-01-25T15:36:23.634Z,43.07
2023-01-25T15:38:52.041Z,43.83
2023-01-25T15:41:20.655Z,44.27
2023-01-25T15:43:51.422Z,43.57
2023-01-25T15:46:22.798Z,42.13
2023-01-25T15:48:51.889Z,45.73
2023-01-25T15:51:21.203Z,49.73
2023-01-25T15:53:49.338Z,47.20
2023-01-25T15:56:20.604Z,49.30
2023-01-25T15:58:53.563Z,44.50
2023-01-25T16:01:22.822Z,43.27
2023-01-25T16:03:50.910Z,42.70
2023-01-25T16:06:35.580Z,41.57
2023-01-25T16:09:13.897Z,41.50
2023-01-25T16:11:41.822Z,44.30
2023-01-25T16:14:11.467Z,46.10
2023-01-25T16:16:44.572Z,45.40
2023-01-25T16:19:15.449Z,43.70
2023-01-25T16:21:43.866Z,50.83
2023-01-25T16:24:12.058Z,44.60
2023-01-25T16:26:45.662Z,45.83
2023-01-25T16:29:15.001Z,44.03
2023-01-25T16:31:43.003Z,46.23
2023-01-25T16:34:12.131Z,45.90
2023-01-25T16:36:40.357Z,46.43
2023-01-25T16:39:15.055Z,46.17
2023-01-25T16:41:43.399Z,45.03
2023-01-25T16:44:11.471Z,45.03
2023-01-25T16:46:41.316Z,44.60
2023-01-25T16:49:16.517Z,42.07
2023-01-25T16:51:45.482Z,43.15
2023-01-25T16:54:13.498Z,43.50
2023-01-25T16:56:47.218Z,46.00
2023-01-25T16:59:16.202Z,44.30
2023-01-25T17:01:45.908Z,42.90
2023-01-25T17:04:14.527Z,40.47
2023-01-25T17:06:46.164Z,40.53
2023-01-25T17:09:23.382Z,44.30
2023-01-25T17:11:53.308Z,41.83
2023-01-25T17:14:21.952Z,41.10
2023-01-25T17:16:53.432Z,43.60
2023-01-25T17:19:21.994Z,47.57
2023-01-25T17:21:49.887Z,46.13
2023-01-25T17:24:21.585Z,44.40
2023-01-25T17:26:50.632Z,42.40
2023-01-25T17:29:18.749Z,44.53
2023-01-25T17:31:46.709Z,43.17
2023-01-25T17:34:18.885Z,43.90
2023-01-25T17:36:47.358Z,43.47
2023-01-25T17:39:19.339Z,44.77
2023-01-25T17:41:49.641Z,43.13
2023-01-25T17:44:20.365Z,39.80
2023-01-25T17:46:50.458Z,42.27
2023-01-25T17:49:22.468Z,42.87
2023-01-25T17:51:50.978Z,42.83
2023-01-25T17:54:19.017Z,42.07
2023-01-25T17:56:47.260Z,40.33
2023-01-25T17:59:15.205Z,37.63
2023-01-25T18:01:43.376Z,42.33
2023-01-25T18:04:13.236Z,43.07
2023-01-25T18:06:43.512Z,40.47
2023-01-25T18:09:11.461Z,39.40
2023-01-25T18:11:40.749Z,44.43
2023-01-25T18:14:16.957Z,67.23
2023-01-25T18:16:45.226Z,43.33
2023-01-25T18:19:13.428Z,42.43
2023-01-25T18:21:43.396Z,42.10
2023-01-25T18:24:31.871Z,44.47
2023-01-25T18:27:05.358Z,42.13
2023-01-25T18:29:46.707Z,46.93
2023-01-25T18:32:15.584Z,41.73
2023-01-25T18:34:43.725Z,41.83
2023-01-25T18:37:20.348Z,45.53
2023-01-25T18:39:50.427Z,41.07
2023-01-25T18:42:19.442Z,50.67
2023-01-25T18:44:50.777Z,51.17
2023-01-25T18:47:21.846Z,44.77
2023-01-25T18:49:52.220Z,46.67
2023-01-25T18:52:23.397Z,47.43
2023-01-25T18:54:51.965Z,44.70
2023-01-25T18:57:20.450Z,44.10
2023-01-25T18:59:48.482Z,42.00
2023-01-25T19:02:18.539Z,45.40
2023-01-25T19:04:46.734Z,49.70
2023-01-25T19:07:14.789Z,45.50
2023-01-25T19:09:44.071Z,43.00
2023-01-25T19:12:11.947Z,40.67
2023-01-25T19:14:43.080Z,42.70
2023-01-25T19:17:11.197Z,42.77
2023-01-25T19:19:39.247Z,43.83
2023-01-25T19:22:07.065Z,40.70
2023-01-25T19:24:35.087Z,40.73
2023-01-25T19:27:04.458Z,39.30
2023-01-25T19:29:32.451Z,32.93
2023-01-25T19:32:00.408Z,39.60
2023-01-25T19:34:28.282Z,25.23
2023-01-25T19:36:57.367Z,40.93
2023-01-25T19:39:25.584Z,38.50
2023-01-25T19:41:54.379Z,29.13
2023-01-25T19:44:25.079Z,43.00
2023-01-25T19:46:53.146Z,42.30
2023-01-25T19:49:22.436Z,42.53
2023-01-25T19:51:53.135Z,25.73
2023-01-25T19:54:21.797Z,44.00
2023-01-25T19:56:50.308Z,42.03
2023-01-25T19:59:20.851Z,44.80
2023-01-25T20:01:50.732Z,43.50
2023-01-25T20:04:22.058Z,44.20
2023-01-25T20:06:51.482Z,42.60
2023-01-25T20:09:24.737Z,42.53
2023-01-25T20:11:55.829Z,40.17
2023-01-25T20:14:24.025Z,45.37
2023-01-25T20:16:53.253Z,44.17
2023-01-25T20:19:21.351Z,43.97
2023-01-25T20:21:49.332Z,46.63
2023-01-25T20:24:17.422Z,76.33
2023-01-25T20:26:45.808Z,43.50
2023-01-25T20:29:13.766Z,45.67
2023-01-25T20:31:44.394Z,50.13
2023-01-25T20:34:16.838Z,57.23
2023-01-25T20:36:45.673Z,57.83
2023-01-25T20:39:16.258Z,59.53
2023-01-25T20:41:44.952Z,49.23
2023-01-25T20:44:15.432Z,41.87
2023-01-25T20:46:44.165Z,48.30
2023-01-25T20:49:17.982Z,42.07
2023-01-25T20:51:47.497Z,42.83
2023-01-25T20:54:16.709Z,39.27
2023-01-25T20:56:47.903Z,39.23
2023-01-25T20:59:17.664Z,43.40
2023-01-25T21:01:46.742Z,42.63
2023-01-25T21:04:16.322Z,41.63
2023-01-25T21:06:44.651Z,44.57
2023-01-25T21:09:12.878Z,43.27
2023-01-25T21:11:44.673Z,47.97
2023-01-25T21:14:12.746Z,43.63
2023-01-25T21:16:41.083Z,41.00
2023-01-25T21:19:10.430Z,50.43
2023-01-25T21:21:39.757Z,50.17
2023-01-25T21:24:09.288Z,42.93
2023-01-25T21:26:38.580Z,43.57
2023-01-25T21:29:07.973Z,44.60
2023-01-25T21:31:39.127Z,46.43
2023-01-25T21:34:09.090Z,45.53
2023-01-25T21:36:37.403Z,44.07
2023-01-25T21:39:06.920Z,41.90
2023-01-25T21:41:35.041Z,40.83
2023-01-25T21:44:22.286Z,41.33
2023-01-25T21:49:57.934Z,43.03
2023-01-25T21:52:25.951Z,43.37
2023-01-25T21:54:55.214Z,41.97
2023-01-25T21:57:23.157Z,43.37
2023-01-25T21:59:53.774Z,27.57
2023-01-25T22:02:22.461Z,30.03
2023-01-25T22:04:50.615Z,41.40
2023-01-25T22:07:18.908Z,41.70
2023-01-25T22:09:49.464Z,40.93
2023-01-25T22:12:19.077Z,47.13
2023-01-25T22:14:47.248Z,45.90
2023-01-25T22:17:15.409Z,45.87
2023-01-25T22:19:43.432Z,48.83
2023-01-25T22:22:11.310Z,47.70
2023-01-25T22:24:39.286Z,45.97
2023-01-25T22:27:36.889Z,48.13
2023-01-25T22:30:06.755Z,44.77
2023-01-25T22:32:34.661Z,45.00
2023-01-25T22:35:02.504Z,48.90
2023-01-25T22:37:30.432Z,50.37
2023-01-25T22:39:58.545Z,45.97
2023-01-25T22:42:26.545Z,47.43
2023-01-25T22:44:55.747Z,45.67
2023-01-25T22:47:23.763Z,46.50
2023-01-25T22:49:51.589Z,45.93
2023-01-25T22:52:19.429Z,45.27
2023-01-25T22:54:50.235Z,46.40
2023-01-25T22:57:18.526Z,47.93
2023-01-25T22:59:46.492Z,47.63
2023-01-25T23:02:15.967Z,47.30
2023-01-25T23:04:43.999Z,45.93
2023-01-25T23:07:12.710Z,47.97
2023-01-25T23:09:41.057Z,47.40
2023-01-25T23:12:08.977Z,49.10
2023-01-25T23:14:51.873Z,52.20
2023-01-25T23:17:42.444Z,46.33
2023-01-25T23:20:13.065Z,44.60
2023-01-25T23:22:41.547Z,47.03
2023-01-25T23:25:11.255Z,46.90
2023-01-25T23:27:39.556Z,49.57
2023-01-25T23:30:09.786Z,45.53
2023-01-25T23:32:40.255Z,44.13
2023-01-25T23:35:08.594Z,45.93
2023-01-25T23:37:36.577Z,42.50
2023-01-25T23:40:08.947Z,41.20
2023-01-25T23:42:37.586Z,46.20
2023-01-25T23:45:08.288Z,46.67
2023-01-25T23:47:36.412Z,45.20
2023-01-25T23:50:07.864Z,47.23
2023-01-25T23:52:35.988Z,46.53
2023-01-25T23:55:04.678Z,46.10
2023-01-25T23:57:32.537Z,46.60
